Time;durP1;ratioP1;P1;durP2;ratioP2;P2;SDS_P1;SDS_P2;PMS_P1;PMS_P2;Temp;Humidity;BMP_temperature;BMP_pressure;BME280_temperature;BME280_humidity;BME280_pressure;Samples;Min_cycle;Max_cycle;Signal;HPM_P1;HPM_P2
2023/12/14 00:01:42;;;;;;;8.35;3.60;;;4.50;99.90;;;;;;4949049;29;20094;-80
2023/12/14 00:04:09;;;;;;;8.55;3.70;;;5.60;99.90;;;;;;4954130;29;20043;-80
2023/12/14 00:06:35;;;;;;;6.53;3.60;;;4.50;99.90;;;;;;4954136;29;20497;-80
2023/12/14 00:09:02;;;;;;;9.10;3.90;;;5.20;99.90;;;;;;4953813;29;20043;-80
2023/12/14 00:11:29;;;;;;;8.63;4.03;;;4.40;99.90;;;;;;4955041;29;20409;-80
2023/12/14 00:13:56;;;;;;;7.95;3.67;;;4.40;99.90;;;;;;4935175;29;20162;-80
2023/12/14 00:16:22;;;;;;;6.95;3.55;;;4.70;99.90;;;;;;4951014;29;20127;-80
2023/12/14 00:18:49;;;;;;;7.00;3.50;;;4.40;99.90;;;;;;4952210;29;20459;-80
2023/12/14 00:21:16;;;;;;;7.07;3.63;;;4.40;99.90;;;;;;4970031;29;20043;-80
2023/12/14 00:23:42;;;;;;;6.22;3.70;;;4.40;99.90;;;;;;4953687;29;20047;-80
2023/12/14 00:26:09;;;;;;;10.75;3.47;;;4.40;99.90;;;;;;4938377;29;20048;-80
2023/12/14 00:28:35;;;;;;;8.40;3.85;;;4.40;99.90;;;;;;4944386;29;20040;-80
2023/12/14 00:31:02;;;;;;;8.00;3.75;;;4.40;99.90;;;;;;4953830;29;20047;-80
2023/12/14 00:33:29;;;;;;;6.65;3.50;;;4.40;99.90;;;;;;4953654;29;20519;-80
2023/12/14 00:35:55;;;;;;;6.32;3.50;;;4.40;99.90;;;;;;4953531;29;20505;-80
2023/12/14 00:38:22;;;;;;;8.48;3.63;;;5.20;99.90;;;;;;4953638;29;20042;-80
2023/12/14 00:40:49;;;;;;;6.25;3.15;;;5.20;99.90;;;;;;4964949;29;20074;-80
2023/12/14 00:43:15;;;;;;;8.27;3.30;;;4.40;99.90;;;;;;4945542;29;20210;-80
2023/12/14 00:45:42;;;;;;;6.90;3.40;;;4.40;99.90;;;;;;4953458;29;20043;-80
2023/12/14 00:48:09;;;;;;;9.50;3.65;;;4.40;99.90;;;;;;4957816;29;20108;-80
2023/12/14 00:50:35;;;;;;;7.55;3.58;;;4.30;99.90;;;;;;4952857;29;20398;-80
2023/12/14 00:53:02;;;;;;;9.02;3.85;;;4.30;99.90;;;;;;4950290;29;20071;-80
2023/12/14 00:55:28;;;;;;;7.57;3.70;;;4.50;99.90;;;;;;4953156;29;20114;-80
2023/12/14 00:57:55;;;;;;;7.30;3.70;;;4.40;99.90;;;;;;4953778;29;20046;-80
2023/12/14 01:00:22;;;;;;;10.65;3.88;;;4.30;99.90;;;;;;4965146;29;20051;-80
2023/12/14 01:02:48;;;;;;;6.63;3.55;;;5.50;99.90;;;;;;4953386;29;20040;-80
2023/12/14 01:05:15;;;;;;;6.47;3.55;;;4.30;99.90;;;;;;4946159;29;20047;-80
2023/12/14 01:07:42;;;;;;;10.23;3.90;;;4.30;99.90;;;;;;4962237;29;20508;-80
2023/12/14 01:10:08;;;;;;;8.15;4.20;;;4.30;99.90;;;;;;4953084;29;20047;-80
2023/12/14 01:12:35;;;;;;;8.90;3.92;;;4.40;99.90;;;;;;4952870;29;20484;-80
2023/12/14 01:15:02;;;;;;;7.63;3.53;;;4.30;99.90;;;;;;4953227;29;20504;-80
2023/12/14 01:17:29;;;;;;;8.07;3.65;;;4.30;99.90;;;;;;4943601;29;20035;-80
2023/12/14 01:19:55;;;;;;;9.60;3.92;;;5.10;99.90;;;;;;4940429;29;20044;-80
2023/12/14 01:22:22;;;;;;;8.32;3.60;;;4.90;99.90;;;;;;4952713;29;20420;-80
2023/12/14 01:24:48;;;;;;;8.30;3.83;;;5.30;99.90;;;;;;4950777;29;20040;-80
2023/12/14 01:27:15;;;;;;;9.05;3.97;;;4.60;99.90;;;;;;4952498;29;20480;-80
2023/12/14 01:29:42;;;;;;;10.00;4.47;;;4.30;99.90;;;;;;4968884;29;20058;-80
2023/12/14 01:32:08;;;;;;;7.80;3.65;;;4.30;99.90;;;;;;4952894;29;20039;-80
2023/12/14 01:34:35;;;;;;;9.50;3.70;;;4.50;99.90;;;;;;4966938;29;20032;-80
2023/12/14 01:37:01;;;;;;;8.35;3.80;;;4.30;99.90;;;;;;4952549;29;20556;-80
2023/12/14 01:39:28;;;;;;;9.38;4.50;;;4.40;99.90;;;;;;4946206;29;20143;-80
2023/12/14 01:41:55;;;;;;;8.60;4.05;;;5.20;99.90;;;;;;4948722;29;20040;-80
2023/12/14 01:44:21;;;;;;;8.10;3.92;;;4.40;99.90;;;;;;4937838;29;20051;-80
2023/12/14 01:46:48;;;;;;;13.30;4.55;;;4.40;99.90;;;;;;4946340;29;20390;-80
2023/12/14 01:49:14;;;;;;;14.88;5.65;;;4.30;99.90;;;;;;4941401;29;20082;-80
2023/12/14 01:51:41;;;;;;;12.55;4.97;;;4.40;99.90;;;;;;4968441;29;20047;-80
2023/12/14 01:54:08;;;;;;;13.98;5.35;;;4.40;99.90;;;;;;4944582;29;20040;-80
2023/12/14 01:56:34;;;;;;;10.77;5.30;;;4.80;99.90;;;;;;4948635;29;20040;-80
2023/12/14 01:59:01;;;;;;;14.02;5.40;;;4.40;99.90;;;;;;4943110;29;20461;-80
2023/12/14 02:04:11;;;;;;;11.38;5.82;;;4.30;99.90;;;;;;5552693;23;19926;-82
2023/12/14 02:06:38;;;;;;;13.77;5.78;;;4.10;99.90;;;;;;4929865;29;20051;-82
2023/12/14 02:09:05;;;;;;;15.75;5.55;;;4.30;99.90;;;;;;4949226;29;20400;-83
2023/12/14 02:11:32;;;;;;;14.52;5.78;;;4.70;99.90;;;;;;4945742;29;20040;-82
2023/12/14 02:14:06;;;;;;;14.52;5.70;;;4.40;99.90;;;;;;4940350;29;20102;-82
2023/12/14 02:16:33;;;;;;;17.77;5.47;;;4.40;99.90;;;;;;4943971;29;20035;-83
2023/12/14 02:19:00;;;;;;;11.32;5.85;;;4.60;99.90;;;;;;4956174;29;20036;-82
2023/12/14 02:21:26;;;;;;;16.65;5.95;;;4.40;99.90;;;;;;4935680;29;20130;-82
2023/12/14 02:23:53;;;;;;;12.15;5.38;;;4.30;99.90;;;;;;4930307;29;20382;-82
2023/12/14 02:26:19;;;;;;;12.45;5.30;;;4.30;99.90;;;;;;4942510;29;20044;-82
2023/12/14 02:28:46;;;;;;;11.20;5.63;;;4.40;99.90;;;;;;4955996;29;20043;-82
2023/12/14 02:31:13;;;;;;;12.38;5.00;;;5.30;99.90;;;;;;4938558;29;20544;-82
2023/12/14 02:33:39;;;;;;;15.57;5.47;;;4.40;99.90;;;;;;4944548;29;20053;-83
2023/12/14 02:36:06;;;;;;;15.50;5.75;;;5.30;99.90;;;;;;4958111;29;20039;-82
2023/12/14 02:38:33;;;;;;;11.38;5.50;;;4.30;99.90;;;;;;4950655;29;20063;-82
2023/12/14 02:40:59;;;;;;;11.57;4.95;;;4.30;99.90;;;;;;4938321;29;20054;-83
2023/12/14 02:43:26;;;;;;;15.52;5.40;;;4.30;99.90;;;;;;4964520;29;20473;-83
2023/12/14 02:45:55;;;;;;;14.70;5.43;;;4.30;99.90;;;;;;4959122;29;20079;-83
2023/12/14 02:48:21;;;;;;;16.58;5.80;;;4.40;99.90;;;;;;4945004;29;20115;-83
2023/12/14 02:50:48;;;;;;;14.23;5.95;;;4.40;99.90;;;;;;4938850;29;20040;-83
2023/12/14 02:53:15;;;;;;;14.88;5.85;;;4.30;99.90;;;;;;4944437;29;20094;-83
2023/12/14 02:55:41;;;;;;;14.48;5.53;;;4.30;99.90;;;;;;4928067;29;20043;-82
2023/12/14 02:58:08;;;;;;;15.75;5.38;;;4.30;99.90;;;;;;4951699;29;20118;-83
2023/12/14 03:00:34;;;;;;;14.95;5.35;;;4.30;99.90;;;;;;4944558;29;20040;-83
2023/12/14 03:03:01;;;;;;;13.02;5.18;;;4.30;99.90;;;;;;4959381;29;20047;-83
2023/12/14 03:05:28;;;;;;;13.38;5.82;;;4.30;99.90;;;;;;4942144;29;20063;-83
2023/12/14 03:07:54;;;;;;;13.82;5.05;;;4.30;99.90;;;;;;4955354;29;20071;-83
2023/12/14 03:10:21;;;;;;;13.52;6.22;;;4.30;99.90;;;;;;4955160;29;20083;-83
2023/12/14 03:12:47;;;;;;;14.90;5.88;;;4.30;99.90;;;;;;4963861;29;20408;-83
2023/12/14 03:15:17;;;;;;;13.25;5.35;;;4.70;99.90;;;;;;4947063;29;20044;-83
2023/12/14 03:17:44;;;;;;;12.40;5.10;;;4.30;99.90;;;;;;4953417;29;20040;-82
2023/12/14 03:20:13;;;;;;;15.68;5.85;;;4.30;99.90;;;;;;4954780;29;20051;-83
2023/12/14 03:22:39;;;;;;;12.40;5.18;;;4.30;99.90;;;;;;4955200;29;20123;-83
2023/12/14 03:25:07;;;;;;;14.23;5.45;;;4.70;99.90;;;;;;4947916;29;20124;-83
2023/12/14 03:27:34;;;;;;;15.02;5.93;;;4.30;99.90;;;;;;4962345;29;20040;-83
2023/12/14 03:30:01;;;;;;;14.65;5.70;;;4.30;99.90;;;;;;4954767;29;20039;-82
2023/12/14 03:32:27;;;;;;;14.10;5.65;;;4.20;99.90;;;;;;4968713;29;20047;-83
2023/12/14 03:34:54;;;;;;;11.68;5.35;;;4.20;99.90;;;;;;4968298;29;20051;-83
2023/12/14 03:37:21;;;;;;;12.93;5.72;;;4.20;99.90;;;;;;4956795;29;20035;-83
2023/12/14 03:39:48;;;;;;;12.27;5.57;;;4.10;99.90;;;;;;4957411;29;20496;-83
2023/12/14 03:42:14;;;;;;;14.30;5.47;;;4.10;99.90;;;;;;4954563;29;20134;-83
2023/12/14 03:44:41;;;;;;;11.25;5.78;;;4.10;99.90;;;;;;4954839;29;20054;-83
2023/12/14 03:47:07;;;;;;;12.60;6.00;;;4.10;99.90;;;;;;4941956;29;20044;-83
2023/12/14 03:49:38;;;;;;;15.65;6.07;;;4.10;99.90;;;;;;4960841;29;20044;-83
2023/12/14 03:52:05;;;;;;;12.70;5.53;;;4.20;99.90;;;;;;4954428;29;20078;-83
2023/12/14 03:54:31;;;;;;;13.82;5.82;;;4.20;99.90;;;;;;4969985;29;20074;-83
2023/12/14 03:56:58;;;;;;;14.18;6.13;;;4.20;99.90;;;;;;4970053;29;20839;-83
2023/12/14 03:59:25;;;;;;;12.43;5.57;;;4.40;99.90;;;;;;4957693;29;20510;-83
2023/12/14 04:01:51;;;;;;;15.23;6.25;;;4.40;99.90;;;;;;4954333;29;20039;-83
2023/12/14 04:04:18;;;;;;;14.02;6.43;;;4.20;99.90;;;;;;4954011;29;20055;-83
2023/12/14 04:06:44;;;;;;;16.15;6.53;;;4.50;99.90;;;;;;4960433;29;20415;-83
2023/12/14 04:09:11;;;;;;;16.75;6.50;;;4.20;99.90;;;;;;4942497;29;20040;-83
2023/12/14 04:11:38;;;;;;;15.23;7.13;;;4.20;99.90;;;;;;4947298;29;20126;-83
2023/12/14 04:14:04;;;;;;;17.60;6.40;;;4.20;99.90;;;;;;4943550;29;20464;-83
2023/12/14 04:16:31;;;;;;;20.50;6.90;;;4.10;99.90;;;;;;4946716;29;20489;-83
2023/12/14 04:18:58;;;;;;;19.38;6.40;;;4.10;99.90;;;;;;4936883;29;20044;-83
2023/12/14 04:21:24;;;;;;;16.95;7.50;;;4.10;99.90;;;;;;4965768;29;20533;-83
2023/12/14 04:23:51;;;;;;;18.23;7.07;;;4.60;99.90;;;;;;4953610;29;20082;-83
2023/12/14 04:26:17;;;;;;;15.90;6.82;;;4.20;99.90;;;;;;4949490;29;20052;-83
2023/12/14 04:28:45;;;;;;;18.85;7.55;;;5.00;99.90;;;;;;4934841;29;20051;-83
2023/12/14 04:31:12;;;;;;;17.38;7.18;;;4.10;99.90;;;;;;4951190;29;20389;-83
2023/12/14 04:33:39;;;;;;;21.75;7.38;;;5.00;99.90;;;;;;4953700;29;20055;-83
2023/12/14 04:36:06;;;;;;;16.85;7.25;;;5.10;99.90;;;;;;4953544;29;20110;-83
2023/12/14 04:38:33;;;;;;;19.13;6.78;;;4.10;99.90;;;;;;4953333;29;20110;-83
2023/12/14 04:41:00;;;;;;;17.17;6.85;;;4.90;99.90;;;;;;4953240;29;20122;-83
2023/12/14 04:43:29;;;;;;;16.85;7.55;;;4.20;99.90;;;;;;4950163;29;20393;-84
2023/12/14 04:45:56;;;;;;;19.52;7.10;;;4.20;99.90;;;;;;4945175;29;20044;-83
2023/12/14 04:48:22;;;;;;;17.35;7.03;;;4.20;99.90;;;;;;4969382;29;20051;-83
2023/12/14 04:50:49;;;;;;;17.00;7.10;;;5.10;99.90;;;;;;4953122;29;20043;-83
2023/12/14 04:53:15;;;;;;;18.73;7.60;;;4.20;99.90;;;;;;4968867;29;20076;-83
2023/12/14 04:55:42;;;;;;;18.95;7.00;;;4.20;99.90;;;;;;4950540;29;20492;-83
2023/12/14 04:58:09;;;;;;;17.77;6.53;;;4.20;99.90;;;;;;4953423;29;20126;-83
2023/12/14 05:00:35;;;;;;;15.38;6.53;;;4.20;99.90;;;;;;4979467;29;20071;-83
2023/12/14 05:03:02;;;;;;;16.40;6.22;;;5.10;99.90;;;;;;4967329;29;20131;-83
2023/12/14 05:05:28;;;;;;;15.15;6.60;;;4.10;99.90;;;;;;4952852;29;20415;-84
2023/12/14 05:07:55;;;;;;;19.58;6.82;;;4.20;99.90;;;;;;4948322;29;20039;-82
2023/12/14 05:10:22;;;;;;;17.10;7.18;;;4.20;99.90;;;;;;4949099;29;20048;-83
2023/12/14 05:12:48;;;;;;;19.80;7.50;;;4.20;99.90;;;;;;4965197;29;20423;-83
2023/12/14 05:15:15;;;;;;;15.48;6.70;;;4.10;99.90;;;;;;4968669;29;20039;-83
2023/12/14 05:17:42;;;;;;;19.58;6.30;;;4.20;99.90;;;;;;4952966;29;20044;-83
2023/12/14 05:20:09;;;;;;;16.92;6.85;;;5.10;99.90;;;;;;4968764;29;20047;-83
2023/12/14 05:22:35;;;;;;;15.57;6.82;;;4.20;99.90;;;;;;4953321;29;20408;-83
2023/12/14 05:25:04;;;;;;;16.42;6.90;;;4.10;99.90;;;;;;4952856;29;20051;-83
2023/12/14 05:27:30;;;;;;;16.83;7.10;;;4.20;99.90;;;;;;4942053;29;20044;-83
2023/12/14 05:29:57;;;;;;;17.92;6.65;;;4.20;99.90;;;;;;4968521;29;20043;-83
2023/12/14 05:32:24;;;;;;;16.88;6.65;;;4.20;99.90;;;;;;4969110;29;20058;-83
2023/12/14 05:34:50;;;;;;;18.42;7.70;;;4.20;99.90;;;;;;4952560;29;20045;-83
2023/12/14 05:37:17;;;;;;;18.73;7.65;;;4.20;99.90;;;;;;4966507;29;20114;-83
2023/12/14 05:39:46;;;;;;;13.52;6.72;;;4.20;99.90;;;;;;4933777;29;20484;-83
2023/12/14 05:42:16;;;;;;;17.80;7.13;;;4.20;99.90;;;;;;4968252;29;20086;-83
2023/12/14 05:44:44;;;;;;;17.52;7.65;;;4.20;99.90;;;;;;4943178;29;20044;-83
2023/12/14 05:47:11;;;;;;;19.23;6.47;;;5.10;99.90;;;;;;4946126;29;20487;-83
2023/12/14 05:49:42;;;;;;;18.27;7.45;;;4.20;99.90;;;;;;4959797;29;20107;-83
2023/12/14 05:52:09;;;;;;;17.10;7.40;;;4.20;99.90;;;;;;4952318;29;20051;-83
2023/12/14 05:54:37;;;;;;;15.30;6.93;;;4.20;99.90;;;;;;4956791;29;20051;-83
2023/12/14 05:57:04;;;;;;;14.98;7.15;;;4.30;99.90;;;;;;4955062;29;20496;-83
2023/12/14 05:59:30;;;;;;;17.13;7.07;;;4.20;99.90;;;;;;4947477;29;20043;-83
2023/12/14 06:01:58;;;;;;;19.27;7.68;;;4.20;99.90;;;;;;4968246;29;20039;-83
2023/12/14 06:04:27;;;;;;;20.27;7.75;;;4.30;99.90;;;;;;4964939;29;20119;-83
2023/12/14 06:06:53;;;;;;;15.45;6.68;;;4.30;99.90;;;;;;4968350;29;20078;-83
2023/12/14 06:09:24;;;;;;;15.25;7.28;;;4.30;99.90;;;;;;4951491;29;20100;-83
2023/12/14 06:11:51;;;;;;;18.55;7.32;;;4.30;99.90;;;;;;4956473;29;20175;-83
2023/12/14 06:14:18;;;;;;;22.30;7.47;;;4.30;99.90;;;;;;4961186;29;20119;-83
2023/12/14 06:16:45;;;;;;;18.23;7.43;;;4.70;99.90;;;;;;4933645;29;20040;-83
2023/12/14 06:19:12;;;;;;;17.98;7.18;;;4.30;99.90;;;;;;4952088;29;20035;-83
2023/12/14 06:21:38;;;;;;;18.05;7.45;;;4.20;99.90;;;;;;4968023;29;20043;-84
2023/12/14 06:24:05;;;;;;;18.20;7.75;;;5.40;99.90;;;;;;4947295;29;20036;-83
2023/12/14 06:26:32;;;;;;;17.67;7.50;;;4.30;99.90;;;;;;4952378;29;20074;-83
2023/12/14 06:28:58;;;;;;;18.88;7.38;;;4.30;99.90;;;;;;4952254;29;20047;-83
2023/12/14 06:31:25;;;;;;;17.08;7.47;;;4.30;99.90;;;;;;4943542;29;20079;-83
2023/12/14 06:33:52;;;;;;;18.80;8.45;;;4.30;99.90;;;;;;4948746;29;20056;-83
2023/12/14 06:36:18;;;;;;;19.67;8.63;;;5.30;99.90;;;;;;4939593;29;20064;-83
2023/12/14 06:38:45;;;;;;;20.90;7.72;;;4.30;99.90;;;;;;4952106;29;20039;-83
2023/12/14 06:41:22;;;;;;;19.35;8.13;;;4.30;99.90;;;;;;4952114;29;20473;-83
2023/12/14 06:43:49;;;;;;;17.10;8.20;;;4.30;99.90;;;;;;4968069;29;20044;-83
2023/12/14 06:46:16;;;;;;;18.25;7.47;;;5.30;99.90;;;;;;4951964;29;20040;-84
2023/12/14 06:48:43;;;;;;;18.35;8.55;;;5.30;99.90;;;;;;4951807;29;20568;-83
2023/12/14 06:51:09;;;;;;;19.50;7.90;;;4.30;99.90;;;;;;4949270;29;20440;-83
2023/12/14 06:53:39;;;;;;;21.77;8.38;;;4.30;99.90;;;;;;4944794;29;20044;-84
2023/12/14 06:56:09;;;;;;;19.42;8.32;;;5.00;99.90;;;;;;4941655;29;20043;-83
2023/12/14 06:58:37;;;;;;;23.88;8.65;;;4.30;99.90;;;;;;4957959;29;20555;-84
2023/12/14 07:01:04;;;;;;;19.48;8.95;;;4.20;99.90;;;;;;4964269;29;20409;-83
2023/12/14 07:03:31;;;;;;;18.40;8.40;;;4.20;99.90;;;;;;4971158;29;20051;-83
2023/12/14 07:05:58;;;;;;;22.48;9.15;;;4.20;99.90;;;;;;4945036;29;20563;-83
2023/12/14 07:08:25;;;;;;;21.13;8.65;;;4.60;99.90;;;;;;4920672;29;20054;-83
2023/12/14 07:10:52;;;;;;;22.80;9.50;;;4.20;99.90;;;;;;4942120;29;20044;-83
2023/12/14 07:13:18;;;;;;;23.02;9.23;;;4.20;99.90;;;;;;4954890;29;20040;-82
2023/12/14 07:15:45;;;;;;;26.65;9.50;;;5.30;99.90;;;;;;4939676;29;20114;-83
2023/12/14 07:18:12;;;;;;;23.80;9.50;;;4.20;99.90;;;;;;4927879;29;20401;-83
2023/12/14 07:20:38;;;;;;;25.77;10.57;;;4.30;99.90;;;;;;4930465;29;20035;-83
2023/12/14 07:23:05;;;;;;;25.42;9.65;;;4.20;99.90;;;;;;4928293;29;20103;-83
2023/12/14 07:25:32;;;;;;;23.50;9.30;;;4.30;99.90;;;;;;4931628;29;20134;-83
2023/12/14 07:27:58;;;;;;;21.17;9.07;;;4.20;99.90;;;;;;4933336;29;20051;-83
2023/12/14 07:30:25;;;;;;;22.17;9.32;;;4.20;99.90;;;;;;4947725;29;20048;-83
2023/12/14 07:32:52;;;;;;;22.98;9.43;;;4.20;99.90;;;;;;4929774;29;20052;-83
2023/12/14 07:35:19;;;;;;;17.02;8.38;;;4.20;99.90;;;;;;4947579;29;20062;-83
2023/12/14 07:37:45;;;;;;;21.55;9.18;;;4.20;99.90;;;;;;4936740;29;20036;-83
2023/12/14 07:40:12;;;;;;;22.27;9.02;;;4.20;99.90;;;;;;4927319;29;20404;-83
2023/12/14 07:42:39;;;;;;;21.75;9.00;;;4.10;99.90;;;;;;4943084;29;20056;-83
2023/12/14 07:45:08;;;;;;;17.60;9.05;;;4.20;99.90;;;;;;4950312;29;20051;-83
2023/12/14 07:47:35;;;;;;;22.15;8.73;;;4.20;99.90;;;;;;4948245;29;20087;-82
2023/12/14 07:50:02;;;;;;;25.58;9.52;;;4.20;99.90;;;;;;4937613;29;20082;-83
2023/12/14 07:52:28;;;;;;;27.52;9.18;;;4.20;99.90;;;;;;4948740;29;20098;-82
2023/12/14 07:54:55;;;;;;;19.90;8.52;;;4.20;99.90;;;;;;4938308;29;20047;-83
2023/12/14 07:57:21;;;;;;;20.00;8.43;;;4.20;99.90;;;;;;4937568;29;20040;-83
2023/12/14 07:59:48;;;;;;;23.33;8.75;;;4.20;99.90;;;;;;4940502;29;20508;-84
2023/12/14 08:02:15;;;;;;;24.73;9.02;;;4.20;99.90;;;;;;4937908;29;20046;-85
2023/12/14 08:04:42;;;;;;;19.63;8.07;;;4.50;99.90;;;;;;4949525;29;20083;-84
2023/12/14 08:07:08;;;;;;;21.90;9.05;;;4.90;99.90;;;;;;4938215;29;20859;-85
2023/12/14 08:09:35;;;;;;;18.05;8.73;;;4.20;99.90;;;;;;4944904;29;20036;-85
2023/12/14 08:12:02;;;;;;;23.95;8.98;;;4.30;99.90;;;;;;4969874;29;20043;-85
2023/12/14 08:14:28;;;;;;;20.85;9.18;;;4.20;99.90;;;;;;4948297;29;20079;-84
2023/12/14 08:16:55;;;;;;;21.10;9.00;;;4.50;99.90;;;;;;4953497;29;20035;-85
2023/12/14 08:19:23;;;;;;;21.55;9.07;;;4.70;99.90;;;;;;4960694;29;20058;-84
2023/12/14 08:21:49;;;;;;;25.45;8.88;;;4.30;99.90;;;;;;4939752;29;20048;-85
2023/12/14 08:24:16;;;;;;;21.58;9.45;;;4.30;99.90;;;;;;4952112;29;20078;-85
2023/12/14 08:26:42;;;;;;;25.73;8.85;;;4.20;99.90;;;;;;4938165;29;20039;-84
2023/12/14 08:29:09;;;;;;;22.45;9.60;;;4.30;99.90;;;;;;4938046;29;20863;-85
2023/12/14 08:31:36;;;;;;;24.90;9.35;;;4.30;99.90;;;;;;4939781;29;20044;-85
2023/12/14 08:34:03;;;;;;;20.73;9.15;;;4.30;99.90;;;;;;4942291;29;20126;-84
2023/12/14 08:36:31;;;;;;;26.20;9.43;;;4.30;99.90;;;;;;4940181;29;20780;-85
2023/12/14 08:38:58;;;;;;;24.20;10.50;;;4.30;99.90;;;;;;4957340;29;20040;-85
2023/12/14 08:41:25;;;;;;;25.88;9.52;;;5.30;99.90;;;;;;4932587;29;20040;-85
2023/12/14 08:43:51;;;;;;;20.55;9.13;;;4.30;99.90;;;;;;4932343;29;20532;-84
2023/12/14 08:46:18;;;;;;;20.27;8.88;;;4.30;99.90;;;;;;4939967;29;20043;-85
2023/12/14 08:48:45;;;;;;;24.23;8.95;;;5.10;99.90;;;;;;4938176;29;20047;-80
2023/12/14 08:51:20;;;;;;;23.67;9.35;;;4.30;99.90;;;;;;4938410;29;20039;-81
2023/12/14 08:53:47;;;;;;;;;;;4.30;99.90;;;;;;4936501;29;20047;-85
2023/12/14 08:56:13;;;;;;;20.30;8.57;;;4.30;99.90;;;;;;4946087;29;19919;-85
2023/12/14 08:58:40;;;;;;;21.25;9.57;;;4.30;99.90;;;;;;4925105;29;20049;-85
2023/12/14 09:01:07;;;;;;;20.05;8.75;;;4.80;99.90;;;;;;4937647;29;20040;-85
2023/12/14 09:03:33;;;;;;;20.63;9.00;;;4.40;99.90;;;;;;4935100;29;20048;-85
2023/12/14 09:06:02;;;;;;;21.75;8.05;;;4.40;99.90;;;;;;4954857;29;20070;-85
2023/12/14 09:08:29;;;;;;;23.80;9.00;;;5.20;99.90;;;;;;4929239;29;20047;-84
2023/12/14 09:10:55;;;;;;;20.50;8.85;;;5.00;99.90;;;;;;4933455;29;20054;-84
2023/12/14 09:13:22;;;;;;;17.55;7.63;;;5.00;99.90;;;;;;4939726;29;20409;-85
2023/12/14 09:15:52;;;;;;;23.40;8.55;;;4.90;99.90;;;;;;4934317;29;20063;-84
2023/12/14 09:18:20;;;;;;;20.92;8.38;;;4.40;99.90;;;;;;4932122;29;20036;-84
2023/12/14 09:20:46;;;;;;;19.90;8.18;;;4.40;99.90;;;;;;4930490;29;20040;-84
2023/12/14 09:23:13;;;;;;;17.98;8.43;;;4.40;99.90;;;;;;4927853;29;20040;-84
2023/12/14 09:25:40;;;;;;;22.27;8.75;;;4.40;99.90;;;;;;4925877;29;20036;-84
2023/12/14 09:28:07;;;;;;;17.75;8.38;;;4.70;99.90;;;;;;4928223;29;20043;-84
2023/12/14 09:30:33;;;;;;;23.15;8.68;;;4.40;99.90;;;;;;4931004;29;20504;-84
2023/12/14 09:33:00;;;;;;;19.77;8.55;;;4.50;99.90;;;;;;4942551;29;20123;-84
2023/12/14 09:35:27;;;;;;;21.80;8.80;;;4.50;99.90;;;;;;4928927;29;20039;-84
2023/12/14 09:37:53;;;;;;;19.50;8.52;;;4.50;99.90;;;;;;4943094;29;20464;-86
2023/12/14 09:40:22;;;;;;;17.95;8.48;;;4.60;99.90;;;;;;4941172;29;20035;-86
2023/12/14 09:42:48;;;;;;;22.85;9.50;;;4.60;99.90;;;;;;4934049;29;20449;-85
2023/12/14 09:45:20;;;;;;;22.23;8.50;;;5.20;99.90;;;;;;4933753;29;20094;-85
2023/12/14 09:47:47;;;;;;;21.90;8.73;;;5.60;99.90;;;;;;4921200;29;20051;-84
2023/12/14 09:50:14;;;;;;;22.05;8.68;;;5.60;99.90;;;;;;4927076;29;20048;-85
2023/12/14 09:52:45;;;;;;;22.63;8.68;;;4.70;99.90;;;;;;4941253;29;20063;-85
2023/12/14 09:55:12;;;;;;;18.20;8.52;;;4.70;99.90;;;;;;4958665;29;20039;-85
2023/12/14 09:57:39;;;;;;;26.38;8.93;;;4.70;99.90;;;;;;4934759;29;20044;-86
2023/12/14 10:00:10;;;;;;;19.38;8.15;;;4.70;99.90;;;;;;4937213;29;20044;-85
2023/12/14 10:02:37;;;;;;;24.17;9.52;;;4.70;99.90;;;;;;4931378;29;20039;-84
2023/12/14 10:05:09;;;;;;;21.33;8.68;;;4.80;99.90;;;;;;4945781;29;20066;-85
2023/12/14 10:07:43;;;;;;;19.00;9.10;;;4.80;99.90;;;;;;4967449;29;20054;-84
2023/12/14 10:10:13;;;;;;;20.33;8.65;;;4.80;99.90;;;;;;4947272;29;20404;-84
2023/12/14 10:12:53;;;;;;;20.13;9.05;;;4.80;99.90;;;;;;4968053;29;20531;-86
2023/12/14 10:15:20;;;;;;;22.23;8.00;;;5.40;99.90;;;;;;4952227;29;20531;-85
2023/12/14 10:17:53;;;;;;;23.08;8.10;;;5.00;99.90;;;;;;4949361;29;20040;-86
2023/12/14 10:20:23;;;;;;;14.60;7.70;;;4.90;99.90;;;;;;4942444;29;20058;-85
2023/12/14 10:22:50;;;;;;;18.50;7.75;;;4.90;99.90;;;;;;4943751;29;20416;-85
2023/12/14 10:25:20;;;;;;;20.48;8.50;;;5.10;99.90;;;;;;4953979;29;20045;-85
2023/12/14 10:27:48;;;;;;;18.38;8.32;;;5.60;99.90;;;;;;4952441;29;20044;-86
2023/12/14 10:30:15;;;;;;;23.40;10.02;;;4.90;99.90;;;;;;4949308;29;20074;-85
2023/12/14 10:32:41;;;;;;;22.23;9.18;;;4.90;99.90;;;;;;4952054;29;20119;-85
2023/12/14 10:35:08;;;;;;;21.33;9.95;;;5.00;99.90;;;;;;4954376;29;20139;-86
2023/12/14 10:37:41;;;;;;;21.33;8.90;;;5.00;99.90;;;;;;4950771;29;20043;-85
2023/12/14 10:40:10;;;;;;;19.13;8.30;;;5.00;99.90;;;;;;4965919;29;20050;-85
2023/12/14 10:42:38;;;;;;;17.40;8.07;;;5.00;99.90;;;;;;4953451;29;20046;-85
2023/12/14 10:45:06;;;;;;;18.73;8.30;;;6.00;99.90;;;;;;4960129;29;20410;-86
2023/12/14 10:47:33;;;;;;;19.00;8.57;;;5.10;99.90;;;;;;4948412;29;20042;-86
2023/12/14 10:50:01;;;;;;;21.27;9.48;;;5.10;99.90;;;;;;4942630;29;20055;-85
2023/12/14 10:52:28;;;;;;;17.13;8.75;;;5.80;99.90;;;;;;4945814;29;20445;-86
2023/12/14 10:55:04;;;;;;;19.63;8.85;;;5.20;99.90;;;;;;4959733;29;20044;-86
2023/12/14 10:57:32;;;;;;;21.00;9.00;;;6.00;99.90;;;;;;4951150;29;20043;-86
2023/12/14 11:00:06;;;;;;;22.88;9.05;;;6.20;99.90;;;;;;4953706;29;20496;-85
2023/12/14 11:02:39;;;;;;;18.63;9.07;;;5.20;99.90;;;;;;4949869;29;20036;-86
2023/12/14 11:05:09;;;;;;;17.75;8.68;;;5.60;99.90;;;;;;4938881;29;20070;-86
2023/12/14 11:07:47;;;;;;;20.90;8.65;;;5.20;99.90;;;;;;4942380;29;20044;-85
2023/12/14 11:10:14;;;;;;;19.95;9.18;;;6.00;99.90;;;;;;4944592;29;20142;-86
2023/12/14 11:12:54;;;;;;;20.98;10.02;;;5.20;99.90;;;;;;4944442;29;20047;-85
2023/12/14 11:15:22;;;;;;;23.30;10.93;;;5.30;99.90;;;;;;4934642;29;20100;-85
2023/12/14 11:18:12;;;;;;;24.35;10.63;;;5.30;99.90;;;;;;4933812;29;20046;-85
2023/12/14 11:20:45;;;;;;;25.85;9.88;;;6.00;99.90;;;;;;4925999;29;20051;-81
2023/12/14 11:23:17;;;;;;;18.70;9.85;;;5.30;99.90;;;;;;4948338;29;20043;-81
2023/12/14 11:25:44;;;;;;;25.00;11.07;;;5.30;99.90;;;;;;4934533;29;20047;-81
2023/12/14 11:28:10;;;;;;;24.25;10.25;;;5.30;99.90;;;;;;4939234;29;20044;-81
2023/12/14 11:30:37;;;;;;;18.80;8.88;;;5.90;99.90;;;;;;4952948;29;20039;-81
2023/12/14 11:33:04;;;;;;;24.40;8.85;;;5.40;99.90;;;;;;4924289;29;20040;-81
2023/12/14 11:35:30;;;;;;;19.42;9.50;;;5.30;99.90;;;;;;4931753;29;20500;-81
2023/12/14 11:37:59;;;;;;;25.38;9.75;;;5.30;99.90;;;;;;4948683;29;20040;-81
2023/12/14 11:40:26;;;;;;;19.33;9.48;;;5.30;99.90;;;;;;4948172;29;20039;-81
2023/12/14 11:42:59;;;;;;;21.23;10.05;;;6.10;99.90;;;;;;4930966;29;20047;-81
2023/12/14 11:45:26;;;;;;;22.00;9.40;;;5.60;99.90;;;;;;4939273;29;20036;-82
2023/12/14 11:47:53;;;;;;;19.17;9.00;;;5.30;99.90;;;;;;4948897;29;20053;-80
2023/12/14 11:50:20;;;;;;;20.55;9.05;;;5.40;99.90;;;;;;4938208;29;20050;-81
2023/12/14 11:52:47;;;;;;;18.27;9.32;;;5.70;99.90;;;;;;4925697;29;20040;-82
2023/12/14 11:55:14;;;;;;;21.33;9.05;;;5.30;99.90;;;;;;4945260;29;20047;-82
2023/12/14 11:57:47;;;;;;;19.48;8.75;;;5.30;99.90;;;;;;4941072;29;20488;-82
2023/12/14 12:00:15;;;;;;;19.08;8.63;;;5.30;99.90;;;;;;4943118;29;20051;-81
2023/12/14 12:02:42;;;;;;;19.85;9.60;;;5.30;99.90;;;;;;4943306;29;20050;-81
2023/12/14 12:05:13;;;;;;;21.45;8.98;;;6.10;99.90;;;;;;4938281;29;20557;-81
2023/12/14 12:07:43;;;;;;;21.55;8.38;;;5.20;99.90;;;;;;4946757;29;20052;-80
2023/12/14 12:10:11;;;;;;;19.90;8.88;;;5.20;99.90;;;;;;4928377;29;20044;-81
2023/12/14 12:12:37;;;;;;;16.67;8.23;;;5.60;99.90;;;;;;4950931;29;20074;-81
2023/12/14 12:15:05;;;;;;;17.75;8.52;;;6.00;99.90;;;;;;4951695;29;20047;-81
2023/12/14 12:17:37;;;;;;;20.15;8.43;;;5.20;99.90;;;;;;4925855;29;20123;-82
2023/12/14 12:20:05;;;;;;;17.40;8.43;;;5.20;99.90;;;;;;4944851;29;20381;-80
2023/12/14 12:22:32;;;;;;;20.48;8.43;;;5.20;99.90;;;;;;4941515;29;20039;-80
2023/12/14 12:25:00;;;;;;;17.42;9.20;;;5.20;99.90;;;;;;4937025;29;20047;-80
2023/12/14 12:27:27;;;;;;;20.25;8.85;;;5.20;99.90;;;;;;4934785;29;20043;-80
2023/12/14 12:29:54;;;;;;;24.15;10.38;;;5.20;99.90;;;;;;4931743;29;20039;-80
2023/12/14 12:32:21;;;;;;;22.45;9.68;;;5.50;99.90;;;;;;4927601;29;20164;-81
2023/12/14 12:34:48;;;;;;;22.20;9.68;;;5.20;99.90;;;;;;4935779;29;20127;-80
2023/12/14 12:37:14;;;;;;;18.73;9.30;;;5.20;99.90;;;;;;4919716;29;20047;-81
2023/12/14 12:39:41;;;;;;;19.98;9.82;;;5.20;99.90;;;;;;4951529;29;20043;-80
2023/12/14 12:42:08;;;;;;;20.20;9.93;;;6.00;99.90;;;;;;4931674;29;20404;-81
2023/12/14 12:44:34;;;;;;;22.42;9.07;;;6.30;99.90;;;;;;4947358;29;20051;-82
2023/12/14 12:47:01;;;;;;;20.23;9.30;;;5.20;99.90;;;;;;4947748;29;20042;-81
2023/12/14 12:49:28;;;;;;;19.38;9.13;;;6.10;99.90;;;;;;4920747;29;20445;-82
2023/12/14 12:51:54;;;;;;;24.38;9.38;;;6.10;99.90;;;;;;4931008;29;20044;-82